sensor_id;sensor_type;location;lat;lon;timestamp;P1;durP1;ratioP1;P2;durP2;ratioP2
21430;SDS011;10876;49.038;10.608;2023-04-08T00:02:26;10.88;;;6.60;;
21430;SDS011;10876;49.038;10.608;2023-04-08T00:04:52;11.65;;;6.30;;
21430;SDS011;10876;49.038;10.608;2023-04-08T00:07:19;12.82;;;6.20;;
21430;SDS011;10876;49.038;10.608;2023-04-08T00:09:46;10.95;;;6.35;;
21430;SDS011;10876;49.038;10.608;2023-04-08T00:12:14;13.35;;;7.13;;
21430;SDS011;10876;49.038;10.608;2023-04-08T00:14:41;11.85;;;7.38;;
21430;SDS011;10876;49.038;10.608;2023-04-08T00:17:07;15.95;;;8.20;;
21430;SDS011;10876;49.038;10.608;2023-04-08T00:19:34;15.10;;;8.02;;
21430;SDS011;10876;49.038;10.608;2023-04-08T00:22:01;15.57;;;7.60;;
21430;SDS011;10876;49.038;10.608;2023-04-08T00:24:28;16.67;;;8.02;;
21430;SDS011;10876;49.038;10.608;2023-04-08T00:26:54;12.90;;;7.57;;
21430;SDS011;10876;49.038;10.608;2023-04-08T00:29:23;12.73;;;7.20;;
21430;SDS011;10876;49.038;10.608;2023-04-08T00:31:49;14.38;;;7.07;;
21430;SDS011;10876;49.038;10.608;2023-04-08T00:34:16;14.15;;;7.78;;
21430;SDS011;10876;49.038;10.608;2023-04-08T00:36:43;16.38;;;7.88;;
21430;SDS011;10876;49.038;10.608;2023-04-08T00:39:11;13.55;;;8.40;;
21430;SDS011;10876;49.038;10.608;2023-04-08T00:41:37;13.10;;;8.18;;
21430;SDS011;10876;49.038;10.608;2023-04-08T00:44:04;14.38;;;7.88;;
21430;SDS011;10876;49.038;10.608;2023-04-08T00:46:35;19.50;;;9.13;;
21430;SDS011;10876;49.038;10.608;2023-04-08T00:49:04;17.02;;;8.60;;
21430;SDS011;10876;49.038;10.608;2023-04-08T00:51:32;19.48;;;9.30;;
21430;SDS011;10876;49.038;10.608;2023-04-08T00:54:00;20.25;;;10.23;;
21430;SDS011;10876;49.038;10.608;2023-04-08T00:56:28;19.42;;;9.77;;
21430;SDS011;10876;49.038;10.608;2023-04-08T01:01:49;23.42;;;11.10;;
21430;SDS011;10876;49.038;10.608;2023-04-08T01:07:40;19.10;;;10.82;;
21430;SDS011;10876;49.038;10.608;2023-04-08T01:29:44;17.15;;;9.57;;
21430;SDS011;10876;49.038;10.608;2023-04-08T01:32:14;17.08;;;10.15;;
21430;SDS011;10876;49.038;10.608;2023-04-08T01:34:42;20.05;;;11.32;;
21430;SDS011;10876;49.038;10.608;2023-04-08T01:37:10;19.00;;;9.65;;
21430;SDS011;10876;49.038;10.608;2023-04-08T01:39:38;21.83;;;10.48;;
21430;SDS011;10876;49.038;10.608;2023-04-08T01:48:54;17.50;;;10.05;;
21430;SDS011;10876;49.038;10.608;2023-04-08T01:51:22;19.17;;;10.27;;
21430;SDS011;10876;49.038;10.608;2023-04-08T02:00:41;21.00;;;10.00;;
21430;SDS011;10876;49.038;10.608;2023-04-08T02:10:18;19.65;;;10.20;;
21430;SDS011;10876;49.038;10.608;2023-04-08T02:15:51;25.73;;;12.35;;
21430;SDS011;10876;49.038;10.608;2023-04-08T02:18:24;24.15;;;11.50;;
21430;SDS011;10876;49.038;10.608;2023-04-08T02:24:03;29.45;;;12.40;;
21430;SDS011;10876;49.038;10.608;2023-04-08T02:36:53;29.67;;;11.82;;
21430;SDS011;10876;49.038;10.608;2023-04-08T02:39:20;29.05;;;12.45;;
21430;SDS011;10876;49.038;10.608;2023-04-08T02:41:47;33.05;;;13.02;;
21430;SDS011;10876;49.038;10.608;2023-04-08T02:44:14;29.40;;;12.35;;
21430;SDS011;10876;49.038;10.608;2023-04-08T02:46:40;33.40;;;13.15;;
21430;SDS011;10876;49.038;10.608;2023-04-08T02:52:51;28.83;;;13.52;;
21430;SDS011;10876;49.038;10.608;2023-04-08T02:55:18;30.88;;;13.93;;
21430;SDS011;10876;49.038;10.608;2023-04-08T02:57:46;33.83;;;13.48;;
21430;SDS011;10876;49.038;10.608;2023-04-08T03:00:13;27.63;;;13.35;;
21430;SDS011;10876;49.038;10.608;2023-04-08T03:02:41;32.35;;;14.07;;
21430;SDS011;10876;49.038;10.608;2023-04-08T03:05:08;30.92;;;13.82;;
21430;SDS011;10876;49.038;10.608;2023-04-08T03:07:35;33.88;;;14.55;;
21430;SDS011;10876;49.038;10.608;2023-04-08T03:13:57;30.83;;;13.70;;
21430;SDS011;10876;49.038;10.608;2023-04-08T03:16:24;30.38;;;13.20;;
21430;SDS011;10876;49.038;10.608;2023-04-08T03:26:23;27.25;;;12.55;;
21430;SDS011;10876;49.038;10.608;2023-04-08T03:28:51;31.33;;;13.95;;
21430;SDS011;10876;49.038;10.608;2023-04-08T03:31:19;31.00;;;13.55;;
21430;SDS011;10876;49.038;10.608;2023-04-08T03:33:46;33.10;;;14.18;;
21430;SDS011;10876;49.038;10.608;2023-04-08T03:36:13;30.33;;;13.30;;
21430;SDS011;10876;49.038;10.608;2023-04-08T03:38:40;31.10;;;14.38;;
21430;SDS011;10876;49.038;10.608;2023-04-08T03:41:07;30.48;;;13.63;;
21430;SDS011;10876;49.038;10.608;2023-04-08T03:43:34;32.92;;;14.38;;
21430;SDS011;10876;49.038;10.608;2023-04-08T03:46:01;29.80;;;13.07;;
21430;SDS011;10876;49.038;10.608;2023-04-08T03:48:29;27.60;;;13.43;;
21430;SDS011;10876;49.038;10.608;2023-04-08T03:50:57;27.70;;;13.63;;
21430;SDS011;10876;49.038;10.608;2023-04-08T03:56:45;22.75;;;11.32;;
21430;SDS011;10876;49.038;10.608;2023-04-08T03:59:12;22.60;;;11.10;;
21430;SDS011;10876;49.038;10.608;2023-04-08T04:01:39;22.83;;;11.05;;
21430;SDS011;10876;49.038;10.608;2023-04-08T04:04:08;22.92;;;11.73;;
21430;SDS011;10876;49.038;10.608;2023-04-08T04:06:35;24.48;;;11.55;;
21430;SDS011;10876;49.038;10.608;2023-04-08T04:09:02;25.33;;;11.35;;
21430;SDS011;10876;49.038;10.608;2023-04-08T04:11:29;26.02;;;11.77;;
21430;SDS011;10876;49.038;10.608;2023-04-08T04:13:56;24.95;;;12.25;;
21430;SDS011;10876;49.038;10.608;2023-04-08T04:16:23;24.55;;;11.88;;
21430;SDS011;10876;49.038;10.608;2023-04-08T04:18:51;22.77;;;11.48;;
21430;SDS011;10876;49.038;10.608;2023-04-08T04:21:19;23.10;;;11.52;;
21430;SDS011;10876;49.038;10.608;2023-04-08T04:23:46;23.48;;;11.60;;
21430;SDS011;10876;49.038;10.608;2023-04-08T04:26:13;21.48;;;11.65;;
21430;SDS011;10876;49.038;10.608;2023-04-08T04:28:40;26.00;;;12.15;;
21430;SDS011;10876;49.038;10.608;2023-04-08T04:31:07;28.27;;;13.00;;
21430;SDS011;10876;49.038;10.608;2023-04-08T04:33:34;24.90;;;12.48;;
21430;SDS011;10876;49.038;10.608;2023-04-08T04:36:01;24.90;;;12.50;;
21430;SDS011;10876;49.038;10.608;2023-04-08T04:38:29;25.08;;;12.27;;
21430;SDS011;10876;49.038;10.608;2023-04-08T04:40:56;27.67;;;12.82;;
21430;SDS011;10876;49.038;10.608;2023-04-08T04:46:49;24.02;;;11.63;;
21430;SDS011;10876;49.038;10.608;2023-04-08T04:49:16;29.15;;;13.25;;
21430;SDS011;10876;49.038;10.608;2023-04-08T04:51:43;28.10;;;14.18;;
21430;SDS011;10876;49.038;10.608;2023-04-08T04:54:12;26.98;;;12.93;;
21430;SDS011;10876;49.038;10.608;2023-04-08T04:56:39;28.67;;;13.65;;
21430;SDS011;10876;49.038;10.608;2023-04-08T04:59:06;30.30;;;14.60;;
21430;SDS011;10876;49.038;10.608;2023-04-08T05:01:33;30.38;;;13.73;;
21430;SDS011;10876;49.038;10.608;2023-04-08T05:04:00;30.67;;;13.68;;
21430;SDS011;10876;49.038;10.608;2023-04-08T05:06:27;30.90;;;13.55;;
21430;SDS011;10876;49.038;10.608;2023-04-08T05:11:23;30.35;;;13.93;;
21430;SDS011;10876;49.038;10.608;2023-04-08T05:13:50;30.73;;;13.02;;
21430;SDS011;10876;49.038;10.608;2023-04-08T05:16:16;29.52;;;12.75;;
21430;SDS011;10876;49.038;10.608;2023-04-08T05:18:43;27.10;;;12.55;;
21430;SDS011;10876;49.038;10.608;2023-04-08T05:21:10;29.13;;;13.95;;
21430;SDS011;10876;49.038;10.608;2023-04-08T05:23:36;27.20;;;13.80;;
21430;SDS011;10876;49.038;10.608;2023-04-08T05:26:05;28.83;;;13.93;;
21430;SDS011;10876;49.038;10.608;2023-04-08T05:28:33;30.10;;;14.38;;
21430;SDS011;10876;49.038;10.608;2023-04-08T05:31:00;31.33;;;14.35;;
21430;SDS011;10876;49.038;10.608;2023-04-08T05:33:27;27.23;;;13.95;;
21430;SDS011;10876;49.038;10.608;2023-04-08T05:35:53;28.92;;;14.60;;
21430;SDS011;10876;49.038;10.608;2023-04-08T05:38:20;28.65;;;14.50;;
21430;SDS011;10876;49.038;10.608;2023-04-08T05:40:47;31.70;;;15.30;;
21430;SDS011;10876;49.038;10.608;2023-04-08T05:43:14;30.50;;;15.55;;
21430;SDS011;10876;49.038;10.608;2023-04-08T05:45:42;33.13;;;15.57;;
21430;SDS011;10876;49.038;10.608;2023-04-08T05:48:08;29.73;;;13.73;;
21430;SDS011;10876;49.038;10.608;2023-04-08T05:50:35;28.80;;;14.27;;
21430;SDS011;10876;49.038;10.608;2023-04-08T05:53:02;36.00;;;15.57;;
21430;SDS011;10876;49.038;10.608;2023-04-08T05:55:29;30.52;;;14.30;;
21430;SDS011;10876;49.038;10.608;2023-04-08T05:57:55;29.05;;;14.57;;
21430;SDS011;10876;49.038;10.608;2023-04-08T06:00:22;29.45;;;15.27;;
21430;SDS011;10876;49.038;10.608;2023-04-08T06:02:50;30.27;;;15.65;;
21430;SDS011;10876;49.038;10.608;2023-04-08T06:05:17;28.75;;;14.90;;
21430;SDS011;10876;49.038;10.608;2023-04-08T06:07:44;31.23;;;14.43;;
21430;SDS011;10876;49.038;10.608;2023-04-08T06:10:11;28.85;;;14.20;;
21430;SDS011;10876;49.038;10.608;2023-04-08T06:12:37;32.63;;;16.17;;
21430;SDS011;10876;49.038;10.608;2023-04-08T06:15:04;27.83;;;15.18;;
21430;SDS011;10876;49.038;10.608;2023-04-08T06:17:34;22.75;;;13.15;;
21430;SDS011;10876;49.038;10.608;2023-04-08T06:20:03;22.50;;;12.77;;
21430;SDS011;10876;49.038;10.608;2023-04-08T06:22:30;20.73;;;12.55;;
21430;SDS011;10876;49.038;10.608;2023-04-08T06:24:57;21.90;;;11.43;;
21430;SDS011;10876;49.038;10.608;2023-04-08T06:27:24;21.67;;;11.73;;
21430;SDS011;10876;49.038;10.608;2023-04-08T06:29:50;24.33;;;13.45;;
21430;SDS011;10876;49.038;10.608;2023-04-08T06:32:17;25.52;;;12.65;;
21430;SDS011;10876;49.038;10.608;2023-04-08T06:34:44;27.27;;;12.65;;
21430;SDS011;10876;49.038;10.608;2023-04-08T06:37:12;22.65;;;12.13;;
21430;SDS011;10876;49.038;10.608;2023-04-08T06:39:39;45.30;;;18.65;;
21430;SDS011;10876;49.038;10.608;2023-04-08T06:42:06;26.60;;;13.07;;
21430;SDS011;10876;49.038;10.608;2023-04-08T06:44:36;28.77;;;12.95;;
21430;SDS011;10876;49.038;10.608;2023-04-08T06:47:08;38.00;;;17.20;;
21430;SDS011;10876;49.038;10.608;2023-04-08T06:55:38;24.85;;;13.43;;
21430;SDS011;10876;49.038;10.608;2023-04-08T06:58:05;23.83;;;12.02;;
21430;SDS011;10876;49.038;10.608;2023-04-08T07:00:32;21.40;;;11.45;;
21430;SDS011;10876;49.038;10.608;2023-04-08T07:02:59;21.40;;;11.65;;
21430;SDS011;10876;49.038;10.608;2023-04-08T07:05:26;18.20;;;10.68;;
21430;SDS011;10876;49.038;10.608;2023-04-08T07:07:53;23.75;;;13.00;;
21430;SDS011;10876;49.038;10.608;2023-04-08T07:10:20;20.95;;;12.30;;
21430;SDS011;10876;49.038;10.608;2023-04-08T07:12:49;19.50;;;10.80;;
21430;SDS011;10876;49.038;10.608;2023-04-08T07:15:16;17.30;;;9.68;;
21430;SDS011;10876;49.038;10.608;2023-04-08T07:17:43;18.88;;;9.63;;
21430;SDS011;10876;49.038;10.608;2023-04-08T07:20:11;26.83;;;13.68;;
21430;SDS011;10876;49.038;10.608;2023-04-08T07:22:39;18.33;;;10.75;;
21430;SDS011;10876;49.038;10.608;2023-04-08T07:25:06;17.25;;;10.27;;
21430;SDS011;10876;49.038;10.608;2023-04-08T07:27:33;20.88;;;9.85;;
21430;SDS011;10876;49.038;10.608;2023-04-08T07:30:02;28.13;;;13.95;;
21430;SDS011;10876;49.038;10.608;2023-04-08T07:32:30;22.40;;;11.23;;
21430;SDS011;10876;49.038;10.608;2023-04-08T07:34:58;19.80;;;10.95;;
21430;SDS011;10876;49.038;10.608;2023-04-08T07:37:44;25.60;;;12.75;;
21430;SDS011;10876;49.038;10.608;2023-04-08T07:40:11;18.25;;;10.98;;
21430;SDS011;10876;49.038;10.608;2023-04-08T07:42:39;33.88;;;15.00;;
21430;SDS011;10876;49.038;10.608;2023-04-08T07:45:08;19.58;;;10.68;;
21430;SDS011;10876;49.038;10.608;2023-04-08T07:47:35;30.38;;;14.68;;
21430;SDS011;10876;49.038;10.608;2023-04-08T07:50:03;21.27;;;11.40;;
21430;SDS011;10876;49.038;10.608;2023-04-08T07:52:31;18.92;;;10.68;;
21430;SDS011;10876;49.038;10.608;2023-04-08T07:54:58;18.77;;;11.18;;
21430;SDS011;10876;49.038;10.608;2023-04-08T07:57:26;19.77;;;10.70;;
21430;SDS011;10876;49.038;10.608;2023-04-08T07:59:53;20.52;;;10.00;;
21430;SDS011;10876;49.038;10.608;2023-04-08T08:02:21;15.65;;;8.95;;
21430;SDS011;10876;49.038;10.608;2023-04-08T08:04:48;14.20;;;8.95;;
21430;SDS011;10876;49.038;10.608;2023-04-08T08:07:15;20.45;;;9.07;;
21430;SDS011;10876;49.038;10.608;2023-04-08T08:09:42;16.65;;;8.90;;
21430;SDS011;10876;49.038;10.608;2023-04-08T08:12:10;17.60;;;9.90;;
21430;SDS011;10876;49.038;10.608;2023-04-08T08:14:37;16.10;;;9.23;;
21430;SDS011;10876;49.038;10.608;2023-04-08T08:17:07;15.13;;;9.40;;
21430;SDS011;10876;49.038;10.608;2023-04-08T08:19:35;17.48;;;9.80;;
21430;SDS011;10876;49.038;10.608;2023-04-08T08:22:02;13.52;;;8.73;;
21430;SDS011;10876;49.038;10.608;2023-04-08T08:24:29;14.25;;;8.63;;
21430;SDS011;10876;49.038;10.608;2023-04-08T08:26:56;14.63;;;8.68;;
21430;SDS011;10876;49.038;10.608;2023-04-08T08:29:23;16.05;;;8.88;;
21430;SDS011;10876;49.038;10.608;2023-04-08T08:31:50;15.48;;;8.57;;
21430;SDS011;10876;49.038;10.608;2023-04-08T08:34:17;14.93;;;9.13;;
21430;SDS011;10876;49.038;10.608;2023-04-08T08:36:46;15.18;;;8.95;;
21430;SDS011;10876;49.038;10.608;2023-04-08T08:39:13;16.08;;;8.82;;
21430;SDS011;10876;49.038;10.608;2023-04-08T08:41:40;12.73;;;7.95;;
21430;SDS011;10876;49.038;10.608;2023-04-08T08:44:07;12.85;;;7.53;;
21430;SDS011;10876;49.038;10.608;2023-04-08T08:46:35;12.70;;;7.43;;
21430;SDS011;10876;49.038;10.608;2023-04-08T08:56:26;11.05;;;7.32;;
21430;SDS011;10876;49.038;10.608;2023-04-08T08:58:59;14.10;;;8.30;;
21430;SDS011;10876;49.038;10.608;2023-04-08T09:01:30;12.98;;;7.53;;
21430;SDS011;10876;49.038;10.608;2023-04-08T09:04:07;13.77;;;8.52;;
21430;SDS011;10876;49.038;10.608;2023-04-08T09:06:38;16.80;;;8.63;;
21430;SDS011;10876;49.038;10.608;2023-04-08T09:09:05;13.75;;;8.38;;
21430;SDS011;10876;49.038;10.608;2023-04-08T09:15:07;13.48;;;8.20;;
21430;SDS011;10876;49.038;10.608;2023-04-08T09:17:35;14.30;;;8.90;;
21430;SDS011;10876;49.038;10.608;2023-04-08T09:20:04;12.57;;;7.43;;
21430;SDS011;10876;49.038;10.608;2023-04-08T09:22:34;15.20;;;7.63;;
21430;SDS011;10876;49.038;10.608;2023-04-08T09:25:06;13.18;;;8.13;;
21430;SDS011;10876;49.038;10.608;2023-04-08T09:27:49;13.18;;;8.18;;
21430;SDS011;10876;49.038;10.608;2023-04-08T09:30:18;13.50;;;8.50;;
21430;SDS011;10876;49.038;10.608;2023-04-08T09:32:47;12.73;;;7.85;;
21430;SDS011;10876;49.038;10.608;2023-04-08T09:35:16;13.60;;;8.27;;
21430;SDS011;10876;49.038;10.608;2023-04-08T09:37:43;15.45;;;8.57;;
21430;SDS011;10876;49.038;10.608;2023-04-08T09:40:10;13.40;;;8.48;;
21430;SDS011;10876;49.038;10.608;2023-04-08T09:42:40;13.52;;;8.18;;
21430;SDS011;10876;49.038;10.608;2023-04-08T09:45:10;15.13;;;8.40;;
21430;SDS011;10876;49.038;10.608;2023-04-08T09:47:43;13.50;;;8.32;;
21430;SDS011;10876;49.038;10.608;2023-04-08T09:50:20;12.98;;;8.35;;
21430;SDS011;10876;49.038;10.608;2023-04-08T09:52:52;17.60;;;8.88;;
21430;SDS011;10876;49.038;10.608;2023-04-08T09:55:26;13.07;;;7.78;;
21430;SDS011;10876;49.038;10.608;2023-04-08T10:02:02;12.45;;;7.00;;
21430;SDS011;10876;49.038;10.608;2023-04-08T10:04:37;11.60;;;8.00;;
21430;SDS011;10876;49.038;10.608;2023-04-08T10:07:07;11.15;;;7.38;;
21430;SDS011;10876;49.038;10.608;2023-04-08T10:20:02;10.48;;;6.93;;
21430;SDS011;10876;49.038;10.608;2023-04-08T10:22:44;12.32;;;7.57;;
21430;SDS011;10876;49.038;10.608;2023-04-08T10:27:56;10.65;;;6.82;;
21430;SDS011;10876;49.038;10.608;2023-04-08T10:30:42;10.38;;;7.28;;
21430;SDS011;10876;49.038;10.608;2023-04-08T10:33:10;11.13;;;7.40;;
21430;SDS011;10876;49.038;10.608;2023-04-08T10:35:45;12.63;;;7.82;;
21430;SDS011;10876;49.038;10.608;2023-04-08T10:38:15;12.73;;;7.35;;
21430;SDS011;10876;49.038;10.608;2023-04-08T10:40:42;13.15;;;7.97;;
21430;SDS011;10876;49.038;10.608;2023-04-08T10:43:10;12.57;;;7.97;;
21430;SDS011;10876;49.038;10.608;2023-04-08T10:45:39;13.88;;;7.70;;
21430;SDS011;10876;49.038;10.608;2023-04-08T10:48:12;13.20;;;8.32;;
21430;SDS011;10876;49.038;10.608;2023-04-08T10:50:43;12.52;;;8.43;;
21430;SDS011;10876;49.038;10.608;2023-04-08T10:53:10;9.38;;;7.38;;
21430;SDS011;10876;49.038;10.608;2023-04-08T10:55:38;10.00;;;6.45;;
21430;SDS011;10876;49.038;10.608;2023-04-08T10:58:05;10.65;;;6.13;;
21430;SDS011;10876;49.038;10.608;2023-04-08T11:00:33;9.18;;;5.68;;
21430;SDS011;10876;49.038;10.608;2023-04-08T11:03:02;11.40;;;6.60;;
21430;SDS011;10876;49.038;10.608;2023-04-08T11:05:31;18.92;;;10.07;;
21430;SDS011;10876;49.038;10.608;2023-04-08T11:07:59;9.52;;;6.45;;
21430;SDS011;10876;49.038;10.608;2023-04-08T11:10:27;9.68;;;6.07;;
21430;SDS011;10876;49.038;10.608;2023-04-08T11:12:54;14.35;;;7.38;;
21430;SDS011;10876;49.038;10.608;2023-04-08T11:15:23;12.98;;;7.65;;
21430;SDS011;10876;49.038;10.608;2023-04-08T11:17:51;9.75;;;6.20;;
21430;SDS011;10876;49.038;10.608;2023-04-08T11:20:19;13.77;;;7.22;;
21430;SDS011;10876;49.038;10.608;2023-04-08T11:22:46;18.90;;;9.10;;
21430;SDS011;10876;49.038;10.608;2023-04-08T11:25:15;25.88;;;11.55;;
21430;SDS011;10876;49.038;10.608;2023-04-08T11:27:42;16.05;;;6.93;;
21430;SDS011;10876;49.038;10.608;2023-04-08T11:30:10;8.30;;;5.75;;
21430;SDS011;10876;49.038;10.608;2023-04-08T11:32:38;12.32;;;6.78;;
21430;SDS011;10876;49.038;10.608;2023-04-08T11:35:05;15.05;;;7.60;;
21430;SDS011;10876;49.038;10.608;2023-04-08T11:37:36;22.30;;;9.40;;
21430;SDS011;10876;49.038;10.608;2023-04-08T11:40:07;13.82;;;7.10;;
21430;SDS011;10876;49.038;10.608;2023-04-08T11:46:15;6.20;;;4.50;;
21430;SDS011;10876;49.038;10.608;2023-04-08T11:48:56;4.95;;;4.03;;
21430;SDS011;10876;49.038;10.608;2023-04-08T11:51:23;6.68;;;4.22;;
21430;SDS011;10876;49.038;10.608;2023-04-08T11:53:52;6.03;;;4.30;;
21430;SDS011;10876;49.038;10.608;2023-04-08T11:56:19;23.80;;;9.52;;
21430;SDS011;10876;49.038;10.608;2023-04-08T11:58:48;13.70;;;7.43;;
21430;SDS011;10876;49.038;10.608;2023-04-08T12:01:17;8.70;;;5.70;;
21430;SDS011;10876;49.038;10.608;2023-04-08T12:03:57;22.42;;;10.82;;
21430;SDS011;10876;49.038;10.608;2023-04-08T12:06:25;9.55;;;5.28;;
21430;SDS011;10876;49.038;10.608;2023-04-08T12:08:53;6.70;;;4.53;;
21430;SDS011;10876;49.038;10.608;2023-04-08T12:11:20;8.38;;;5.32;;
21430;SDS011;10876;49.038;10.608;2023-04-08T12:13:48;6.18;;;4.75;;
21430;SDS011;10876;49.038;10.608;2023-04-08T12:16:18;5.90;;;4.20;;
21430;SDS011;10876;49.038;10.608;2023-04-08T12:37:26;5.03;;;3.90;;
21430;SDS011;10876;49.038;10.608;2023-04-08T12:39:54;6.10;;;4.43;;
21430;SDS011;10876;49.038;10.608;2023-04-08T12:42:21;5.90;;;4.60;;
21430;SDS011;10876;49.038;10.608;2023-04-08T12:44:48;6.53;;;4.53;;
21430;SDS011;10876;49.038;10.608;2023-04-08T12:47:15;5.85;;;4.38;;
21430;SDS011;10876;49.038;10.608;2023-04-08T12:49:42;6.40;;;4.55;;
21430;SDS011;10876;49.038;10.608;2023-04-08T12:52:09;7.18;;;4.65;;
21430;SDS011;10876;49.038;10.608;2023-04-08T12:54:38;5.88;;;4.43;;
21430;SDS011;10876;49.038;10.608;2023-04-08T12:59:49;5.85;;;4.40;;
21430;SDS011;10876;49.038;10.608;2023-04-08T13:02:16;5.93;;;4.45;;
21430;SDS011;10876;49.038;10.608;2023-04-08T13:04:43;7.30;;;4.85;;
21430;SDS011;10876;49.038;10.608;2023-04-08T13:07:10;5.50;;;4.68;;
21430;SDS011;10876;49.038;10.608;2023-04-08T13:13:26;6.88;;;5.20;;
21430;SDS011;10876;49.038;10.608;2023-04-08T13:15:54;7.18;;;5.18;;
21430;SDS011;10876;49.038;10.608;2023-04-08T13:18:22;9.15;;;5.75;;
21430;SDS011;10876;49.038;10.608;2023-04-08T13:20:48;8.88;;;5.50;;
21430;SDS011;10876;49.038;10.608;2023-04-08T13:23:18;9.15;;;5.30;;
21430;SDS011;10876;49.038;10.608;2023-04-08T13:25:48;8.18;;;5.88;;
21430;SDS011;10876;49.038;10.608;2023-04-08T13:28:15;8.45;;;5.20;;
21430;SDS011;10876;49.038;10.608;2023-04-08T13:30:47;10.48;;;5.70;;
21430;SDS011;10876;49.038;10.608;2023-04-08T13:33:20;10.35;;;6.10;;
21430;SDS011;10876;49.038;10.608;2023-04-08T13:35:59;9.98;;;6.22;;
21430;SDS011;10876;49.038;10.608;2023-04-08T13:46:36;8.18;;;5.50;;
21430;SDS011;10876;49.038;10.608;2023-04-08T13:49:06;11.00;;;6.15;;
21430;SDS011;10876;49.038;10.608;2023-04-08T13:51:36;8.43;;;5.95;;
21430;SDS011;10876;49.038;10.608;2023-04-08T13:54:06;9.25;;;6.22;;
21430;SDS011;10876;49.038;10.608;2023-04-08T13:56:35;9.65;;;5.97;;
21430;SDS011;10876;49.038;10.608;2023-04-08T13:59:18;7.68;;;5.32;;
21430;SDS011;10876;49.038;10.608;2023-04-08T14:01:49;8.85;;;5.55;;
21430;SDS011;10876;49.038;10.608;2023-04-08T14:04:18;11.18;;;6.22;;
21430;SDS011;10876;49.038;10.608;2023-04-08T14:06:46;11.93;;;6.30;;
21430;SDS011;10876;49.038;10.608;2023-04-08T14:09:17;11.82;;;6.65;;
21430;SDS011;10876;49.038;10.608;2023-04-08T14:11:46;8.80;;;6.25;;
21430;SDS011;10876;49.038;10.608;2023-04-08T14:14:15;8.77;;;5.90;;
21430;SDS011;10876;49.038;10.608;2023-04-08T14:16:44;10.13;;;6.30;;
21430;SDS011;10876;49.038;10.608;2023-04-08T14:19:14;9.98;;;6.28;;
21430;SDS011;10876;49.038;10.608;2023-04-08T14:40:09;9.48;;;5.65;;
21430;SDS011;10876;49.038;10.608;2023-04-08T14:42:57;9.50;;;6.07;;
21430;SDS011;10876;49.038;10.608;2023-04-08T14:45:27;10.48;;;6.20;;
21430;SDS011;10876;49.038;10.608;2023-04-08T14:47:54;13.77;;;7.32;;
21430;SDS011;10876;49.038;10.608;2023-04-08T14:50:21;9.65;;;6.43;;
21430;SDS011;10876;49.038;10.608;2023-04-08T14:52:48;10.07;;;6.65;;
21430;SDS011;10876;49.038;10.608;2023-04-08T14:55:17;11.27;;;6.38;;
21430;SDS011;10876;49.038;10.608;2023-04-08T14:57:47;9.52;;;6.10;;
21430;SDS011;10876;49.038;10.608;2023-04-08T15:00:15;9.20;;;5.95;;
21430;SDS011;10876;49.038;10.608;2023-04-08T15:02:42;9.65;;;6.18;;
21430;SDS011;10876;49.038;10.608;2023-04-08T15:05:10;9.13;;;6.10;;
21430;SDS011;10876;49.038;10.608;2023-04-08T15:07:38;8.95;;;6.07;;
21430;SDS011;10876;49.038;10.608;2023-04-08T15:10:06;9.82;;;6.50;;
21430;SDS011;10876;49.038;10.608;2023-04-08T15:12:38;7.20;;;5.63;;
21430;SDS011;10876;49.038;10.608;2023-04-08T15:15:05;10.13;;;6.53;;
21430;SDS011;10876;49.038;10.608;2023-04-08T15:17:34;10.13;;;6.43;;
21430;SDS011;10876;49.038;10.608;2023-04-08T15:20:01;10.15;;;5.65;;
21430;SDS011;10876;49.038;10.608;2023-04-08T15:22:28;10.02;;;5.95;;
21430;SDS011;10876;49.038;10.608;2023-04-08T15:24:55;8.75;;;5.93;;
21430;SDS011;10876;49.038;10.608;2023-04-08T15:27:25;11.23;;;6.97;;
21430;SDS011;10876;49.038;10.608;2023-04-08T15:29:54;9.35;;;6.13;;
21430;SDS011;10876;49.038;10.608;2023-04-08T15:32:23;10.27;;;6.10;;
21430;SDS011;10876;49.038;10.608;2023-04-08T15:34:50;8.48;;;6.00;;
21430;SDS011;10876;49.038;10.608;2023-04-08T15:37:17;10.18;;;6.30;;
21430;SDS011;10876;49.038;10.608;2023-04-08T15:39:44;9.50;;;6.53;;
21430;SDS011;10876;49.038;10.608;2023-04-08T16:28:39;9.38;;;6.57;;
21430;SDS011;10876;49.038;10.608;2023-04-08T16:31:06;9.20;;;5.78;;
21430;SDS011;10876;49.038;10.608;2023-04-08T16:33:33;16.10;;;7.47;;
21430;SDS011;10876;49.038;10.608;2023-04-08T16:36:00;10.30;;;6.50;;
21430;SDS011;10876;49.038;10.608;2023-04-08T16:38:28;13.90;;;7.22;;
21430;SDS011;10876;49.038;10.608;2023-04-08T16:40:55;11.50;;;7.65;;
21430;SDS011;10876;49.038;10.608;2023-04-08T16:43:24;9.60;;;6.50;;
21430;SDS011;10876;49.038;10.608;2023-04-08T16:45:52;10.77;;;6.72;;
21430;SDS011;10876;49.038;10.608;2023-04-08T16:48:19;7.55;;;5.57;;
21430;SDS011;10876;49.038;10.608;2023-04-08T16:50:46;11.18;;;6.65;;
21430;SDS011;10876;49.038;10.608;2023-04-08T16:53:13;11.95;;;7.10;;
21430;SDS011;10876;49.038;10.608;2023-04-08T16:55:40;12.00;;;7.53;;
21430;SDS011;10876;49.038;10.608;2023-04-08T16:58:07;8.68;;;5.88;;
21430;SDS011;10876;49.038;10.608;2023-04-08T17:00:35;7.93;;;5.57;;
21430;SDS011;10876;49.038;10.608;2023-04-08T17:03:04;8.63;;;5.63;;
21430;SDS011;10876;49.038;10.608;2023-04-08T17:05:31;7.75;;;5.38;;
21430;SDS011;10876;49.038;10.608;2023-04-08T17:07:58;9.95;;;6.53;;
21430;SDS011;10876;49.038;10.608;2023-04-08T17:10:25;17.60;;;10.23;;
21430;SDS011;10876;49.038;10.608;2023-04-08T17:12:52;17.38;;;9.52;;
21430;SDS011;10876;49.038;10.608;2023-04-08T17:15:19;14.63;;;8.23;;
21430;SDS011;10876;49.038;10.608;2023-04-08T17:17:47;11.98;;;8.15;;
21430;SDS011;10876;49.038;10.608;2023-04-08T17:20:14;11.90;;;7.47;;
21430;SDS011;10876;49.038;10.608;2023-04-08T17:22:41;13.00;;;8.18;;
21430;SDS011;10876;49.038;10.608;2023-04-08T17:25:08;11.20;;;7.68;;
21430;SDS011;10876;49.038;10.608;2023-04-08T17:27:37;9.85;;;6.68;;
21430;SDS011;10876;49.038;10.608;2023-04-08T17:30:04;11.25;;;6.10;;
21430;SDS011;10876;49.038;10.608;2023-04-08T17:32:32;9.68;;;5.90;;
21430;SDS011;10876;49.038;10.608;2023-04-08T17:35:00;8.52;;;5.97;;
21430;SDS011;10876;49.038;10.608;2023-04-08T17:37:27;7.55;;;5.15;;
21430;SDS011;10876;49.038;10.608;2023-04-08T17:39:54;9.23;;;6.13;;
21430;SDS011;10876;49.038;10.608;2023-04-08T17:42:21;8.68;;;5.80;;
21430;SDS011;10876;49.038;10.608;2023-04-08T17:44:48;8.25;;;5.68;;
21430;SDS011;10876;49.038;10.608;2023-04-08T17:47:15;9.00;;;6.18;;
21430;SDS011;10876;49.038;10.608;2023-04-08T17:49:42;11.10;;;6.60;;
21430;SDS011;10876;49.038;10.608;2023-04-08T17:52:10;12.13;;;6.43;;
21430;SDS011;10876;49.038;10.608;2023-04-08T17:54:37;11.35;;;6.22;;
21430;SDS011;10876;49.038;10.608;2023-04-08T17:57:05;9.20;;;6.32;;
21430;SDS011;10876;49.038;10.608;2023-04-08T17:59:32;12.32;;;6.65;;
21430;SDS011;10876;49.038;10.608;2023-04-08T18:01:59;9.48;;;6.80;;
21430;SDS011;10876;49.038;10.608;2023-04-08T18:04:26;9.52;;;5.90;;
21430;SDS011;10876;49.038;10.608;2023-04-08T18:06:54;10.13;;;6.80;;
21430;SDS011;10876;49.038;10.608;2023-04-08T18:09:22;9.95;;;6.75;;